sensor_id;sensor_type;location;lat;lon;timestamp;temperature;humidity
39777;DHT22;25453;48.162;14.510;2023-05-18T00:02:20;11.60;84.30
39777;DHT22;25453;48.162;14.510;2023-05-18T00:04:49;11.60;84.40
39777;DHT22;25453;48.162;14.510;2023-05-18T00:07:16;11.60;84.30
39777;DHT22;25453;48.162;14.510;2023-05-18T00:09:44;11.60;84.40
39777;DHT22;25453;48.162;14.510;2023-05-18T00:12:11;11.50;84.40
39777;DHT22;25453;48.162;14.510;2023-05-18T00:14:38;11.60;84.40
39777;DHT22;25453;48.162;14.510;2023-05-18T00:17:06;11.50;84.40
39777;DHT22;25453;48.162;14.510;2023-05-18T00:19:33;11.50;84.40
39777;DHT22;25453;48.162;14.510;2023-05-18T00:22:02;11.50;84.30
39777;DHT22;25453;48.162;14.510;2023-05-18T00:24:29;11.50;84.40
39777;DHT22;25453;48.162;14.510;2023-05-18T00:27:00;11.50;84.40
39777;DHT22;25453;48.162;14.510;2023-05-18T00:29:27;11.50;84.40
39777;DHT22;25453;48.162;14.510;2023-05-18T00:31:55;11.40;84.50
39777;DHT22;25453;48.162;14.510;2023-05-18T00:34:22;11.50;84.80
39777;DHT22;25453;48.162;14.510;2023-05-18T00:36:50;11.50;85.00
39777;DHT22;25453;48.162;14.510;2023-05-18T00:39:17;11.60;85.10
39777;DHT22;25453;48.162;14.510;2023-05-18T00:41:44;11.60;85.00
39777;DHT22;25453;48.162;14.510;2023-05-18T00:44:12;11.60;84.80
39777;DHT22;25453;48.162;14.510;2023-05-18T00:46:39;11.60;84.60
39777;DHT22;25453;48.162;14.510;2023-05-18T00:49:07;11.60;84.70
39777;DHT22;25453;48.162;14.510;2023-05-18T00:51:35;11.60;84.60
39777;DHT22;25453;48.162;14.510;2023-05-18T00:54:03;11.60;84.50
39777;DHT22;25453;48.162;14.510;2023-05-18T00:56:32;11.50;84.40
39777;DHT22;25453;48.162;14.510;2023-05-18T00:59:02;11.50;84.40
39777;DHT22;25453;48.162;14.510;2023-05-18T01:01:31;11.50;84.50
39777;DHT22;25453;48.162;14.510;2023-05-18T01:04:01;11.40;84.70
39777;DHT22;25453;48.162;14.510;2023-05-18T01:06:30;11.40;84.80
39777;DHT22;25453;48.162;14.510;2023-05-18T01:08:59;11.50;84.90
39777;DHT22;25453;48.162;14.510;2023-05-18T01:14:17;11.50;85.00
39777;DHT22;25453;48.162;14.510;2023-05-18T01:24:30;11.50;84.60
39777;DHT22;25453;48.162;14.510;2023-05-18T01:27:00;11.50;84.70
39777;DHT22;25453;48.162;14.510;2023-05-18T01:29:29;11.50;84.60
39777;DHT22;25453;48.162;14.510;2023-05-18T01:31:57;11.50;84.60
39777;DHT22;25453;48.162;14.510;2023-05-18T01:34:24;11.50;84.60
39777;DHT22;25453;48.162;14.510;2023-05-18T01:36:52;11.50;84.70
39777;DHT22;25453;48.162;14.510;2023-05-18T01:39:19;11.50;84.80
39777;DHT22;25453;48.162;14.510;2023-05-18T01:41:51;11.50;84.80
39777;DHT22;25453;48.162;14.510;2023-05-18T01:44:22;11.50;84.60
39777;DHT22;25453;48.162;14.510;2023-05-18T01:51:55;11.40;84.70
39777;DHT22;25453;48.162;14.510;2023-05-18T01:54:25;11.50;84.80
39777;DHT22;25453;48.162;14.510;2023-05-18T01:56:52;11.40;84.80
39777;DHT22;25453;48.162;14.510;2023-05-18T01:59:22;11.50;84.90
39777;DHT22;25453;48.162;14.510;2023-05-18T02:01:50;11.50;84.90
39777;DHT22;25453;48.162;14.510;2023-05-18T02:04:25;11.50;84.80
39777;DHT22;25453;48.162;14.510;2023-05-18T02:06:55;11.50;84.80
39777;DHT22;25453;48.162;14.510;2023-05-18T02:09:24;11.40;84.70
39777;DHT22;25453;48.162;14.510;2023-05-18T02:11:51;11.40;84.70
39777;DHT22;25453;48.162;14.510;2023-05-18T02:14:21;11.40;84.60
39777;DHT22;25453;48.162;14.510;2023-05-18T02:16:49;11.40;84.60
39777;DHT22;25453;48.162;14.510;2023-05-18T02:19:19;11.40;84.70
39777;DHT22;25453;48.162;14.510;2023-05-18T02:21:47;11.40;84.70
39777;DHT22;25453;48.162;14.510;2023-05-18T02:24:14;11.40;84.80
39777;DHT22;25453;48.162;14.510;2023-05-18T02:26:45;11.40;84.70
39777;DHT22;25453;48.162;14.510;2023-05-18T02:29:13;11.40;84.70
39777;DHT22;25453;48.162;14.510;2023-05-18T02:31:40;11.40;84.70
39777;DHT22;25453;48.162;14.510;2023-05-18T02:34:08;11.40;84.70
39777;DHT22;25453;48.162;14.510;2023-05-18T02:36:36;11.40;84.70
39777;DHT22;25453;48.162;14.510;2023-05-18T02:39:06;11.50;84.80
39777;DHT22;25453;48.162;14.510;2023-05-18T02:41:35;11.40;84.70
39777;DHT22;25453;48.162;14.510;2023-05-18T02:44:05;11.50;84.80
39777;DHT22;25453;48.162;14.510;2023-05-18T02:46:33;11.50;84.70
39777;DHT22;25453;48.162;14.510;2023-05-18T02:49:00;11.50;84.60
39777;DHT22;25453;48.162;14.510;2023-05-18T02:51:28;11.50;84.60
39777;DHT22;25453;48.162;14.510;2023-05-18T02:53:57;11.50;84.70
39777;DHT22;25453;48.162;14.510;2023-05-18T02:56:25;11.50;84.70
39777;DHT22;25453;48.162;14.510;2023-05-18T02:59:00;11.50;84.70
39777;DHT22;25453;48.162;14.510;2023-05-18T03:01:28;11.40;84.40
39777;DHT22;25453;48.162;14.510;2023-05-18T03:04:01;11.40;84.40
39777;DHT22;25453;48.162;14.510;2023-05-18T03:06:29;11.40;84.50
39777;DHT22;25453;48.162;14.510;2023-05-18T03:08:58;11.30;84.70
39777;DHT22;25453;48.162;14.510;2023-05-18T03:11:27;11.40;84.80
39777;DHT22;25453;48.162;14.510;2023-05-18T03:13:54;11.40;84.90
39777;DHT22;25453;48.162;14.510;2023-05-18T03:16:22;11.40;84.90
39777;DHT22;25453;48.162;14.510;2023-05-18T03:18:54;11.40;85.00
39777;DHT22;25453;48.162;14.510;2023-05-18T03:21:25;11.40;84.80
39777;DHT22;25453;48.162;14.510;2023-05-18T03:23:59;11.40;84.70
39777;DHT22;25453;48.162;14.510;2023-05-18T03:26:27;11.40;84.70
39777;DHT22;25453;48.162;14.510;2023-05-18T03:28:57;11.40;84.60
39777;DHT22;25453;48.162;14.510;2023-05-18T03:31:24;11.40;84.40
39777;DHT22;25453;48.162;14.510;2023-05-18T03:33:52;11.40;84.50
39777;DHT22;25453;48.162;14.510;2023-05-18T03:36:20;11.40;84.60
39777;DHT22;25453;48.162;14.510;2023-05-18T03:38:54;11.40;84.50
39777;DHT22;25453;48.162;14.510;2023-05-18T03:41:21;11.40;84.60
39777;DHT22;25453;48.162;14.510;2023-05-18T03:43:48;11.30;84.50
39777;DHT22;25453;48.162;14.510;2023-05-18T03:46:16;11.30;84.60
39777;DHT22;25453;48.162;14.510;2023-05-18T03:48:44;11.30;84.60
39777;DHT22;25453;48.162;14.510;2023-05-18T03:51:11;11.40;84.70
39777;DHT22;25453;48.162;14.510;2023-05-18T03:53:39;11.40;84.80
39777;DHT22;25453;48.162;14.510;2023-05-18T03:56:08;11.40;84.70
39777;DHT22;25453;48.162;14.510;2023-05-18T03:58:37;11.40;84.60
39777;DHT22;25453;48.162;14.510;2023-05-18T04:01:04;11.40;84.50
39777;DHT22;25453;48.162;14.510;2023-05-18T04:03:31;11.40;84.60
39777;DHT22;25453;48.162;14.510;2023-05-18T04:06:03;11.40;84.60
39777;DHT22;25453;48.162;14.510;2023-05-18T04:08:32;11.40;84.60
39777;DHT22;25453;48.162;14.510;2023-05-18T04:11:00;11.40;84.50
39777;DHT22;25453;48.162;14.510;2023-05-18T04:13:28;11.40;84.50
39777;DHT22;25453;48.162;14.510;2023-05-18T04:15:57;11.50;84.40
39777;DHT22;25453;48.162;14.510;2023-05-18T04:18:30;11.40;84.50
39777;DHT22;25453;48.162;14.510;2023-05-18T04:21:02;11.50;84.50
39777;DHT22;25453;48.162;14.510;2023-05-18T04:23:32;11.50;84.50
39777;DHT22;25453;48.162;14.510;2023-05-18T04:26:05;11.50;84.30
39777;DHT22;25453;48.162;14.510;2023-05-18T04:28:33;11.50;84.20
39777;DHT22;25453;48.162;14.510;2023-05-18T04:31:00;11.50;84.20
39777;DHT22;25453;48.162;14.510;2023-05-18T04:33:28;11.50;84.20
39777;DHT22;25453;48.162;14.510;2023-05-18T04:35:56;11.50;84.30
39777;DHT22;25453;48.162;14.510;2023-05-18T04:38:24;11.50;84.30
39777;DHT22;25453;48.162;14.510;2023-05-18T04:40:52;11.50;84.30
39777;DHT22;25453;48.162;14.510;2023-05-18T04:43:21;11.60;84.30
39777;DHT22;25453;48.162;14.510;2023-05-18T04:45:50;11.60;84.40
39777;DHT22;25453;48.162;14.510;2023-05-18T04:48:18;11.70;84.50
39777;DHT22;25453;48.162;14.510;2023-05-18T04:50:45;11.70;84.40
39777;DHT22;25453;48.162;14.510;2023-05-18T04:53:13;11.70;84.40
39777;DHT22;25453;48.162;14.510;2023-05-18T04:55:44;11.80;84.40
39777;DHT22;25453;48.162;14.510;2023-05-18T04:58:12;11.80;84.30
39777;DHT22;25453;48.162;14.510;2023-05-18T05:00:41;11.80;84.10
39777;DHT22;25453;48.162;14.510;2023-05-18T05:03:11;11.80;84.10
39777;DHT22;25453;48.162;14.510;2023-05-18T05:05:39;11.80;84.10
39777;DHT22;25453;48.162;14.510;2023-05-18T05:08:06;11.80;84.10
39777;DHT22;25453;48.162;14.510;2023-05-18T05:10:34;11.80;84.20
39777;DHT22;25453;48.162;14.510;2023-05-18T05:13:02;11.80;84.30
39777;DHT22;25453;48.162;14.510;2023-05-18T05:15:30;11.90;84.30
39777;DHT22;25453;48.162;14.510;2023-05-18T05:17:57;11.90;84.20
39777;DHT22;25453;48.162;14.510;2023-05-18T05:20:25;11.90;84.10
39777;DHT22;25453;48.162;14.510;2023-05-18T05:22:52;11.90;84.10
39777;DHT22;25453;48.162;14.510;2023-05-18T05:25:20;11.90;84.10
39777;DHT22;25453;48.162;14.510;2023-05-18T05:27:47;11.90;84.00
39777;DHT22;25453;48.162;14.510;2023-05-18T05:30:15;11.90;83.90
39777;DHT22;25453;48.162;14.510;2023-05-18T05:32:43;11.90;84.10
39777;DHT22;25453;48.162;14.510;2023-05-18T05:35:12;11.90;83.90
39777;DHT22;25453;48.162;14.510;2023-05-18T05:37:39;11.90;84.00
39777;DHT22;25453;48.162;14.510;2023-05-18T05:40:07;11.90;84.00
39777;DHT22;25453;48.162;14.510;2023-05-18T05:42:36;11.90;84.10
39777;DHT22;25453;48.162;14.510;2023-05-18T05:45:03;11.90;84.10
39777;DHT22;25453;48.162;14.510;2023-05-18T05:47:32;11.90;84.20
39777;DHT22;25453;48.162;14.510;2023-05-18T05:50:03;11.90;84.10
39777;DHT22;25453;48.162;14.510;2023-05-18T05:52:33;11.90;84.00
39777;DHT22;25453;48.162;14.510;2023-05-18T05:55:01;12.00;83.80
39777;DHT22;25453;48.162;14.510;2023-05-18T05:57:28;12.00;83.90
39777;DHT22;25453;48.162;14.510;2023-05-18T05:59:55;11.90;83.90
39777;DHT22;25453;48.162;14.510;2023-05-18T06:02:23;12.00;83.90
39777;DHT22;25453;48.162;14.510;2023-05-18T06:04:50;12.00;83.90
39777;DHT22;25453;48.162;14.510;2023-05-18T06:07:18;12.00;83.90
39777;DHT22;25453;48.162;14.510;2023-05-18T06:09:46;12.00;84.00
39777;DHT22;25453;48.162;14.510;2023-05-18T06:12:15;12.00;84.10
39777;DHT22;25453;48.162;14.510;2023-05-18T06:14:44;12.00;84.00
39777;DHT22;25453;48.162;14.510;2023-05-18T06:17:11;12.00;84.00
39777;DHT22;25453;48.162;14.510;2023-05-18T06:19:39;12.10;84.00
39777;DHT22;25453;48.162;14.510;2023-05-18T06:22:06;12.10;83.80
39777;DHT22;25453;48.162;14.510;2023-05-18T06:24:38;12.10;83.90
39777;DHT22;25453;48.162;14.510;2023-05-18T06:27:05;12.10;83.80
39777;DHT22;25453;48.162;14.510;2023-05-18T06:29:33;12.10;83.80
39777;DHT22;25453;48.162;14.510;2023-05-18T06:32:01;12.10;83.70
39777;DHT22;25453;48.162;14.510;2023-05-18T06:34:28;12.10;83.80
39777;DHT22;25453;48.162;14.510;2023-05-18T06:36:56;12.10;83.70
39777;DHT22;25453;48.162;14.510;2023-05-18T06:39:25;12.10;83.70
39777;DHT22;25453;48.162;14.510;2023-05-18T06:41:55;12.10;83.80
39777;DHT22;25453;48.162;14.510;2023-05-18T06:44:22;12.10;83.80
39777;DHT22;25453;48.162;14.510;2023-05-18T06:46:50;12.20;83.70
39777;DHT22;25453;48.162;14.510;2023-05-18T06:49:17;12.20;83.60
39777;DHT22;25453;48.162;14.510;2023-05-18T06:51:48;12.20;83.70
39777;DHT22;25453;48.162;14.510;2023-05-18T06:54:15;12.20;83.40
39777;DHT22;25453;48.162;14.510;2023-05-18T06:56:43;12.20;83.50
39777;DHT22;25453;48.162;14.510;2023-05-18T06:59:11;12.20;83.50
39777;DHT22;25453;48.162;14.510;2023-05-18T07:01:38;12.20;83.40
39777;DHT22;25453;48.162;14.510;2023-05-18T07:04:06;12.20;83.40
39777;DHT22;25453;48.162;14.510;2023-05-18T07:06:34;12.30;83.30
39777;DHT22;25453;48.162;14.510;2023-05-18T07:09:01;12.30;83.20
39777;DHT22;25453;48.162;14.510;2023-05-18T07:11:29;12.30;83.20
39777;DHT22;25453;48.162;14.510;2023-05-18T07:13:58;12.30;83.20
39777;DHT22;25453;48.162;14.510;2023-05-18T07:16:29;12.40;83.10
39777;DHT22;25453;48.162;14.510;2023-05-18T07:18:56;12.40;83.10
39777;DHT22;25453;48.162;14.510;2023-05-18T07:21:27;12.40;83.00
39777;DHT22;25453;48.162;14.510;2023-05-18T07:23:54;12.40;82.90
39777;DHT22;25453;48.162;14.510;2023-05-18T07:26:21;12.40;82.90
39777;DHT22;25453;48.162;14.510;2023-05-18T07:28:49;12.40;82.90
39777;DHT22;25453;48.162;14.510;2023-05-18T07:31:17;12.40;82.90
39777;DHT22;25453;48.162;14.510;2023-05-18T07:33:47;12.50;82.90
39777;DHT22;25453;48.162;14.510;2023-05-18T07:36:16;12.50;82.90
39777;DHT22;25453;48.162;14.510;2023-05-18T07:38:43;12.50;82.90
39777;DHT22;25453;48.162;14.510;2023-05-18T07:41:11;12.50;82.80
39777;DHT22;25453;48.162;14.510;2023-05-18T07:43:38;12.50;82.70
39777;DHT22;25453;48.162;14.510;2023-05-18T07:46:06;12.50;82.60
39777;DHT22;25453;48.162;14.510;2023-05-18T07:48:33;12.50;82.60
39777;DHT22;25453;48.162;14.510;2023-05-18T07:51:01;12.50;82.30
39777;DHT22;25453;48.162;14.510;2023-05-18T07:53:29;12.50;82.20
39777;DHT22;25453;48.162;14.510;2023-05-18T07:55:58;12.40;82.40
39777;DHT22;25453;48.162;14.510;2023-05-18T07:58:26;12.40;82.30
39777;DHT22;25453;48.162;14.510;2023-05-18T08:00:54;12.40;82.10
39777;DHT22;25453;48.162;14.510;2023-05-18T08:03:21;12.40;82.00
39777;DHT22;25453;48.162;14.510;2023-05-18T08:05:49;12.40;81.90
39777;DHT22;25453;48.162;14.510;2023-05-18T08:08:17;12.30;82.00
39777;DHT22;25453;48.162;14.510;2023-05-18T08:10:44;12.30;82.00
39777;DHT22;25453;48.162;14.510;2023-05-18T08:13:12;12.30;82.10
39777;DHT22;25453;48.162;14.510;2023-05-18T08:15:40;12.30;81.90
39777;DHT22;25453;48.162;14.510;2023-05-18T08:18:07;12.20;81.80
39777;DHT22;25453;48.162;14.510;2023-05-18T08:20:35;12.20;81.70
39777;DHT22;25453;48.162;14.510;2023-05-18T08:23:02;12.20;81.60
39777;DHT22;25453;48.162;14.510;2023-05-18T08:25:30;12.10;81.40
39777;DHT22;25453;48.162;14.510;2023-05-18T08:27:57;12.10;81.50
39777;DHT22;25453;48.162;14.510;2023-05-18T08:30:25;12.00;81.60
39777;DHT22;25453;48.162;14.510;2023-05-18T08:32:52;12.00;81.70
39777;DHT22;25453;48.162;14.510;2023-05-18T08:35:20;12.00;81.70
39777;DHT22;25453;48.162;14.510;2023-05-18T08:37:47;12.00;81.60
39777;DHT22;25453;48.162;14.510;2023-05-18T08:40:16;12.00;81.60
39777;DHT22;25453;48.162;14.510;2023-05-18T08:42:51;12.00;81.50
39777;DHT22;25453;48.162;14.510;2023-05-18T08:47:50;12.00;81.60
39777;DHT22;25453;48.162;14.510;2023-05-18T08:50:19;12.00;81.60
39777;DHT22;25453;48.162;14.510;2023-05-18T08:52:50;12.10;81.60
39777;DHT22;25453;48.162;14.510;2023-05-18T08:55:20;12.10;81.60
39777;DHT22;25453;48.162;14.510;2023-05-18T08:57:49;12.10;81.50
39777;DHT22;25453;48.162;14.510;2023-05-18T09:00:22;12.10;81.40
39777;DHT22;25453;48.162;14.510;2023-05-18T09:02:50;12.20;81.40
39777;DHT22;25453;48.162;14.510;2023-05-18T09:05:19;12.20;81.10
39777;DHT22;25453;48.162;14.510;2023-05-18T09:07:50;12.20;81.20
39777;DHT22;25453;48.162;14.510;2023-05-18T09:10:18;12.20;81.20
39777;DHT22;25453;48.162;14.510;2023-05-18T09:12:45;12.30;81.10
39777;DHT22;25453;48.162;14.510;2023-05-18T09:15:14;12.30;81.10
39777;DHT22;25453;48.162;14.510;2023-05-18T09:17:42;12.30;81.20
39777;DHT22;25453;48.162;14.510;2023-05-18T09:20:10;12.40;81.00
39777;DHT22;25453;48.162;14.510;2023-05-18T09:22:38;12.40;81.00
39777;DHT22;25453;48.162;14.510;2023-05-18T09:25:09;12.50;80.60
39777;DHT22;25453;48.162;14.510;2023-05-18T09:27:37;12.50;80.60
39777;DHT22;25453;48.162;14.510;2023-05-18T09:30:08;12.50;80.60
39777;DHT22;25453;48.162;14.510;2023-05-18T09:32:37;12.50;80.50
39777;DHT22;25453;48.162;14.510;2023-05-18T09:35:05;12.50;80.50
39777;DHT22;25453;48.162;14.510;2023-05-18T09:37:33;12.60;80.30
39777;DHT22;25453;48.162;14.510;2023-05-18T09:40:04;12.60;80.20
39777;DHT22;25453;48.162;14.510;2023-05-18T09:42:35;12.60;80.20
39777;DHT22;25453;48.162;14.510;2023-05-18T09:45:19;12.60;80.20
39777;DHT22;25453;48.162;14.510;2023-05-18T09:47:49;12.60;80.00
39777;DHT22;25453;48.162;14.510;2023-05-18T09:50:17;12.60;79.60
39777;DHT22;25453;48.162;14.510;2023-05-18T09:52:46;12.60;79.70
39777;DHT22;25453;48.162;14.510;2023-05-18T09:55:16;12.60;79.80
39777;DHT22;25453;48.162;14.510;2023-05-18T09:57:48;12.60;79.80
39777;DHT22;25453;48.162;14.510;2023-05-18T10:00:16;12.70;79.60
39777;DHT22;25453;48.162;14.510;2023-05-18T10:02:46;12.70;79.30
39777;DHT22;25453;48.162;14.510;2023-05-18T10:05:22;12.70;79.20
39777;DHT22;25453;48.162;14.510;2023-05-18T10:07:51;12.70;79.00
39777;DHT22;25453;48.162;14.510;2023-05-18T10:10:20;12.70;78.80
39777;DHT22;25453;48.162;14.510;2023-05-18T10:12:51;12.70;78.90
39777;DHT22;25453;48.162;14.510;2023-05-18T10:15:20;12.70;78.70
39777;DHT22;25453;48.162;14.510;2023-05-18T10:17:48;12.70;78.60
39777;DHT22;25453;48.162;14.510;2023-05-18T10:20:17;12.70;78.30
39777;DHT22;25453;48.162;14.510;2023-05-18T10:22:46;12.70;78.00
39777;DHT22;25453;48.162;14.510;2023-05-18T10:25:36;12.70;77.90
39777;DHT22;25453;48.162;14.510;2023-05-18T10:28:05;12.60;77.90
39777;DHT22;25453;48.162;14.510;2023-05-18T10:30:33;12.60;77.90
39777;DHT22;25453;48.162;14.510;2023-05-18T10:33:01;12.70;77.80
39777;DHT22;25453;48.162;14.510;2023-05-18T10:35:37;12.70;77.80
39777;DHT22;25453;48.162;14.510;2023-05-18T10:38:06;12.70;77.70
39777;DHT22;25453;48.162;14.510;2023-05-18T10:40:37;12.70;77.60
39777;DHT22;25453;48.162;14.510;2023-05-18T10:43:06;12.70;77.60
39777;DHT22;25453;48.162;14.510;2023-05-18T10:45:34;12.70;77.30
39777;DHT22;25453;48.162;14.510;2023-05-18T10:48:04;12.70;77.00
39777;DHT22;25453;48.162;14.510;2023-05-18T10:50:33;12.60;77.00
39777;DHT22;25453;48.162;14.510;2023-05-18T10:53:01;12.60;77.00
39777;DHT22;25453;48.162;14.510;2023-05-18T10:55:29;12.60;76.90
39777;DHT22;25453;48.162;14.510;2023-05-18T10:58:02;12.60;77.00
39777;DHT22;25453;48.162;14.510;2023-05-18T11:00:30;12.60;77.10
39777;DHT22;25453;48.162;14.510;2023-05-18T11:03:00;12.70;77.00
39777;DHT22;25453;48.162;14.510;2023-05-18T11:05:29;12.70;76.80
39777;DHT22;25453;48.162;14.510;2023-05-18T11:08:00;12.70;76.60
39777;DHT22;25453;48.162;14.510;2023-05-18T11:10:32;12.70;76.50
39777;DHT22;25453;48.162;14.510;2023-05-18T11:13:00;12.60;76.70
39777;DHT22;25453;48.162;14.510;2023-05-18T11:16:14;12.70;76.80
39777;DHT22;25453;48.162;14.510;2023-05-18T11:18:16;12.70;76.80
39777;DHT22;25453;48.162;14.510;2023-05-18T11:20:44;12.70;76.60
39777;DHT22;25453;48.162;14.510;2023-05-18T11:23:11;12.70;76.50
39777;DHT22;25453;48.162;14.510;2023-05-18T11:25:44;12.70;76.60
39777;DHT22;25453;48.162;14.510;2023-05-18T11:28:14;12.70;76.70
39777;DHT22;25453;48.162;14.510;2023-05-18T11:33:09;12.70;76.40
39777;DHT22;25453;48.162;14.510;2023-05-18T11:44:03;12.70;76.10
39777;DHT22;25453;48.162;14.510;2023-05-18T11:46:36;12.70;76.10
39777;DHT22;25453;48.162;14.510;2023-05-18T11:49:06;12.70;76.10
39777;DHT22;25453;48.162;14.510;2023-05-18T11:51:53;12.70;76.20
39777;DHT22;25453;48.162;14.510;2023-05-18T11:54:24;12.70;76.00
39777;DHT22;25453;48.162;14.510;2023-05-18T11:56:52;12.70;76.00
39777;DHT22;25453;48.162;14.510;2023-05-18T11:59:29;12.70;75.90
39777;DHT22;25453;48.162;14.510;2023-05-18T12:02:00;12.70;76.20
39777;DHT22;25453;48.162;14.510;2023-05-18T12:04:29;12.80;76.00
39777;DHT22;25453;48.162;14.510;2023-05-18T12:07:03;12.80;76.00
39777;DHT22;25453;48.162;14.510;2023-05-18T12:09:31;12.80;76.10
39777;DHT22;25453;48.162;14.510;2023-05-18T12:11:59;12.80;76.10
39777;DHT22;25453;48.162;14.510;2023-05-18T12:14:27;12.90;76.00
39777;DHT22;25453;48.162;14.510;2023-05-18T12:16:55;12.90;75.90
39777;DHT22;25453;48.162;14.510;2023-05-18T12:19:23;12.90;75.90
39777;DHT22;25453;48.162;14.510;2023-05-18T12:21:51;12.90;75.90
39777;DHT22;25453;48.162;14.510;2023-05-18T12:24:20;12.90;75.70
39777;DHT22;25453;48.162;14.510;2023-05-18T12:26:47;12.90;75.60
39777;DHT22;25453;48.162;14.510;2023-05-18T12:29:15;12.90;75.70
39777;DHT22;25453;48.162;14.510;2023-05-18T12:31:46;12.90;75.70
39777;DHT22;25453;48.162;14.510;2023-05-18T12:34:14;12.90;75.80
39777;DHT22;25453;48.162;14.510;2023-05-18T12:36:50;12.90;75.80
39777;DHT22;25453;48.162;14.510;2023-05-18T12:39:18;12.90;75.70
39777;DHT22;25453;48.162;14.510;2023-05-18T12:41:46;12.90;75.70
39777;DHT22;25453;48.162;14.510;2023-05-18T12:44:14;12.90;75.60
39777;DHT22;25453;48.162;14.510;2023-05-18T12:46:41;12.90;75.40
39777;DHT22;25453;48.162;14.510;2023-05-18T12:49:10;12.90;75.30
39777;DHT22;25453;48.162;14.510;2023-05-18T12:51:38;12.90;75.40
39777;DHT22;25453;48.162;14.510;2023-05-18T12:54:06;12.90;75.50
39777;DHT22;25453;48.162;14.510;2023-05-18T12:56:49;12.90;75.40
39777;DHT22;25453;48.162;14.510;2023-05-18T12:59:17;13.00;75.40
39777;DHT22;25453;48.162;14.510;2023-05-18T13:01:48;13.00;75.40
39777;DHT22;25453;48.162;14.510;2023-05-18T13:04:16;13.00;75.60
39777;DHT22;25453;48.162;14.510;2023-05-18T13:06:43;13.00;75.60
39777;DHT22;25453;48.162;14.510;2023-05-18T13:09:14;13.10;75.30
39777;DHT22;25453;48.162;14.510;2023-05-18T13:11:46;13.10;75.20
39777;DHT22;25453;48.162;14.510;2023-05-18T13:14:29;13.10;74.80
39777;DHT22;25453;48.162;14.510;2023-05-18T13:16:59;13.00;74.70
39777;DHT22;25453;48.162;14.510;2023-05-18T13:19:26;13.00;74.60
39777;DHT22;25453;48.162;14.510;2023-05-18T13:21:54;12.90;74.60
39777;DHT22;25453;48.162;14.510;2023-05-18T13:24:22;12.90;74.70
39777;DHT22;25453;48.162;14.510;2023-05-18T13:26:50;12.80;74.80
39777;DHT22;25453;48.162;14.510;2023-05-18T13:29:17;12.80;75.10
39777;DHT22;25453;48.162;14.510;2023-05-18T13:31:45;12.70;75.20
39777;DHT22;25453;48.162;14.510;2023-05-18T13:34:12;12.70;75.20
39777;DHT22;25453;48.162;14.510;2023-05-18T13:36:40;12.70;75.40
39777;DHT22;25453;48.162;14.510;2023-05-18T13:39:08;12.70;75.40
39777;DHT22;25453;48.162;14.510;2023-05-18T13:41:36;12.80;75.60
39777;DHT22;25453;48.162;14.510;2023-05-18T13:44:04;12.80;75.70
39777;DHT22;25453;48.162;14.510;2023-05-18T13:46:31;12.80;75.60
39777;DHT22;25453;48.162;14.510;2023-05-18T13:48:58;12.90;75.50
39777;DHT22;25453;48.162;14.510;2023-05-18T13:51:26;12.90;75.40
39777;DHT22;25453;48.162;14.510;2023-05-18T13:53:53;12.90;75.50
39777;DHT22;25453;48.162;14.510;2023-05-18T13:56:21;12.90;75.50
39777;DHT22;25453;48.162;14.510;2023-05-18T13:58:48;12.90;75.40
39777;DHT22;25453;48.162;14.510;2023-05-18T14:01:16;12.90;75.30
39777;DHT22;25453;48.162;14.510;2023-05-18T14:03:44;13.00;75.20
39777;DHT22;25453;48.162;14.510;2023-05-18T14:06:12;13.00;75.20
39777;DHT22;25453;48.162;14.510;2023-05-18T14:08:39;12.90;75.00
39777;DHT22;25453;48.162;14.510;2023-05-18T14:11:07;12.90;74.70
39777;DHT22;25453;48.162;14.510;2023-05-18T14:13:34;12.90;74.80
39777;DHT22;25453;48.162;14.510;2023-05-18T14:16:02;12.90;74.40
39777;DHT22;25453;48.162;14.510;2023-05-18T14:18:30;12.90;74.50
39777;DHT22;25453;48.162;14.510;2023-05-18T14:20:57;12.90;74.60
39777;DHT22;25453;48.162;14.510;2023-05-18T14:23:28;12.80;74.60
39777;DHT22;25453;48.162;14.510;2023-05-18T14:25:56;12.80;74.80
39777;DHT22;25453;48.162;14.510;2023-05-18T14:28:23;12.90;74.80
39777;DHT22;25453;48.162;14.510;2023-05-18T14:30:50;12.90;74.70
39777;DHT22;25453;48.162;14.510;2023-05-18T14:33:18;12.90;74.70
39777;DHT22;25453;48.162;14.510;2023-05-18T14:35:45;13.00;74.60
39777;DHT22;25453;48.162;14.510;2023-05-18T14:38:13;13.00;74.60
39777;DHT22;25453;48.162;14.510;2023-05-18T14:40:40;13.00;74.60
39777;DHT22;25453;48.162;14.510;2023-05-18T14:43:08;13.00;74.50
39777;DHT22;25453;48.162;14.510;2023-05-18T14:45:36;13.00;74.50
39777;DHT22;25453;48.162;14.510;2023-05-18T14:48:03;13.10;74.50
39777;DHT22;25453;48.162;14.510;2023-05-18T14:50:31;13.10;74.40
39777;DHT22;25453;48.162;14.510;2023-05-18T14:53:01;13.10;74.50
39777;DHT22;25453;48.162;14.510;2023-05-18T14:55:31;13.10;74.50
39777;DHT22;25453;48.162;14.510;2023-05-18T14:57:58;13.20;74.50
39777;DHT22;25453;48.162;14.510;2023-05-18T15:00:29;13.20;74.30
39777;DHT22;25453;48.162;14.510;2023-05-18T15:02:57;13.20;74.20
39777;DHT22;25453;48.162;14.510;2023-05-18T15:05:25;13.30;74.10
39777;DHT22;25453;48.162;14.510;2023-05-18T15:07:53;13.20;74.10
39777;DHT22;25453;48.162;14.510;2023-05-18T15:10:20;13.30;74.10
39777;DHT22;25453;48.162;14.510;2023-05-18T15:12:49;13.30;74.00
39777;DHT22;25453;48.162;14.510;2023-05-18T15:15:17;13.30;73.60
39777;DHT22;25453;48.162;14.510;2023-05-18T15:17:45;13.30;73.50
39777;DHT22;25453;48.162;14.510;2023-05-18T15:20:12;13.30;73.40
39777;DHT22;25453;48.162;14.510;2023-05-18T15:22:40;13.30;73.10
39777;DHT22;25453;48.162;14.510;2023-05-18T15:25:07;13.30;73.00
39777;DHT22;25453;48.162;14.510;2023-05-18T15:27:36;13.30;72.90
39777;DHT22;25453;48.162;14.510;2023-05-18T15:30:04;13.30;73.00
39777;DHT22;25453;48.162;14.510;2023-05-18T15:32:38;13.30;72.90
39777;DHT22;25453;48.162;14.510;2023-05-18T15:35:06;13.30;72.70
39777;DHT22;25453;48.162;14.510;2023-05-18T15:37:33;13.30;72.60
39777;DHT22;25453;48.162;14.510;2023-05-18T15:40:01;13.30;72.40
39777;DHT22;25453;48.162;14.510;2023-05-18T15:42:28;13.30;72.50
39777;DHT22;25453;48.162;14.510;2023-05-18T15:44:56;13.30;72.60
39777;DHT22;25453;48.162;14.510;2023-05-18T15:47:23;13.30;72.70
39777;DHT22;25453;48.162;14.510;2023-05-18T15:49:51;13.30;72.20
39777;DHT22;25453;48.162;14.510;2023-05-18T15:52:21;13.30;72.30
39777;DHT22;25453;48.162;14.510;2023-05-18T15:54:49;13.30;72.60